Terminal Aerodrome Forecast
Issued by NWS

Home | Current Version | Previous Version | Text Only | Print | Product List | Glossary On
Versions: 1 2 3 4 5 6 7 8 9 10 11 12 13 14 15 16 17 18 19 20 21 22 23 24 25 26 27 28 29
000
FTUS43 KDVN 281025 AAD
TAFBRL
TAF AMD
KBRL 281025Z 2810/2906 19010KT P6SM SCT007 BKN025 OVC080
      TEMPO 2810/2813 P6SM BKN008
     FM281500 20010KT P6SM BKN035 PROB30 2821/2824 4SM TSRA BKN035CB
     FM290000 20007KT P6SM VCSH BKN040=

USA.gov is the U.S. government's official web portal to all federal, state and local government web resources and services.